createdAt,value
2019-01-23T00:01:00.857Z,94165.00
2019-01-23T00:03:33.043Z,94167.00
2019-01-23T00:06:04.933Z,94163.00
2019-01-23T00:08:36.789Z,94147.00
2019-01-23T00:11:08.712Z,94152.00
2019-01-23T00:13:40.578Z,94141.00
2019-01-23T00:16:12.451Z,94145.00
2019-01-23T00:18:44.310Z,94126.00
2019-01-23T00:21:16.199Z,94127.00
2019-01-23T00:23:48.060Z,94115.00
2019-01-23T00:26:19.946Z,94130.00
2019-01-23T00:28:51.809Z,94125.00
2019-01-23T00:31:23.705Z,94128.00
2019-01-23T00:33:55.560Z,94123.00
2019-01-23T00:36:27.446Z,94120.00
2019-01-23T00:38:59.304Z,94118.00
2019-01-23T00:41:31.190Z,94110.00
2019-01-23T00:44:03.100Z,94104.00
2019-01-23T00:46:34.977Z,94106.00
2019-01-23T00:49:06.837Z,94110.00
2019-01-23T00:51:38.734Z,94108.00
2019-01-23T00:54:10.897Z,94113.00
2019-01-23T00:56:42.790Z,94092.00
2019-01-23T00:59:14.649Z,94099.00
2019-01-23T01:01:46.539Z,94094.00
2019-01-23T01:04:18.399Z,94092.00
2019-01-23T01:06:50.289Z,94094.00
2019-01-23T01:09:22.156Z,94089.00
2019-01-23T01:11:54.063Z,94090.00
2019-01-23T01:14:25.930Z,94091.00
2019-01-23T01:16:57.830Z,94102.00
2019-01-23T01:19:29.691Z,94089.00
2019-01-23T01:22:01.583Z,94085.00
2019-01-23T01:24:33.434Z,94083.00
2019-01-23T01:27:05.390Z,94087.00
2019-01-23T01:29:37.247Z,94090.00
2019-01-23T01:32:09.122Z,94083.00
2019-01-23T01:34:40.978Z,94074.00
2019-01-23T01:37:12.872Z,94070.00
2019-01-23T01:39:44.730Z,94076.00
2019-01-23T01:42:16.620Z,94068.00
2019-01-23T01:44:48.521Z,94064.00
2019-01-23T01:47:20.417Z,94065.00
2019-01-23T01:49:52.266Z,94057.00
2019-01-23T01:52:24.166Z,94053.00
2019-01-23T01:54:56.017Z,94057.00
2019-01-23T01:57:27.891Z,94050.00
2019-01-23T01:59:59.746Z,94035.00
2019-01-23T02:02:31.647Z,94034.00
2019-01-23T02:05:03.507Z,94035.00
2019-01-23T02:07:35.404Z,94033.00
2019-01-23T02:10:10.180Z,94022.00
2019-01-23T02:12:42.072Z,94027.00
2019-01-23T02:15:14.473Z,94013.00
2019-01-23T02:17:46.379Z,94021.00
2019-01-23T02:20:24.639Z,94007.00
2019-01-23T02:22:56.539Z,94014.00
2019-01-23T02:25:28.417Z,94014.00
2019-01-23T02:28:00.316Z,94014.00
2019-01-23T02:30:32.171Z,94020.00
2019-01-23T02:33:04.047Z,94008.00
2019-01-23T02:35:35.932Z,94005.00
2019-01-23T02:38:07.881Z,94005.00
2019-01-23T02:40:39.765Z,93991.00
2019-01-23T02:43:11.668Z,93989.00
2019-01-23T02:45:43.560Z,93974.00
2019-01-23T02:48:15.410Z,93964.00
2019-01-23T02:50:47.314Z,93968.00
2019-01-23T02:53:19.166Z,93955.00
2019-01-23T02:55:51.086Z,93968.00
2019-01-23T02:58:23.030Z,93952.00
2019-01-23T03:00:54.913Z,93956.00
2019-01-23T03:03:26.789Z,93952.00
2019-01-23T03:05:58.687Z,93957.00
2019-01-23T03:08:30.555Z,93938.00
2019-01-23T03:11:02.440Z,93943.00
2019-01-23T03:13:34.341Z,93943.00
2019-01-23T03:16:06.236Z,93943.00
2019-01-23T03:18:38.098Z,93938.00
2019-01-23T03:21:09.981Z,93926.00
2019-01-23T03:23:42.017Z,93935.00
2019-01-23T03:26:13.915Z,93924.00
2019-01-23T03:28:45.780Z,93911.00
2019-01-23T03:31:17.684Z,93919.00
2019-01-23T03:33:49.539Z,93909.00
2019-01-23T03:36:21.431Z,93907.00
2019-01-23T03:38:53.327Z,93913.00
2019-01-23T03:41:25.244Z,93914.00
2019-01-23T03:43:57.203Z,93910.00
2019-01-23T03:46:29.197Z,93908.00
2019-01-23T03:49:01.063Z,93912.00
2019-01-23T03:51:33.094Z,93905.00
2019-01-23T03:54:05.307Z,93910.00
2019-01-23T03:56:37.602Z,93894.00
2019-01-23T03:59:09.471Z,93902.00
2019-01-23T04:01:41.375Z,93903.00
2019-01-23T04:04:13.234Z,93895.00
2019-01-23T04:06:45.123Z,93884.00
2019-01-23T04:09:16.971Z,93900.00
2019-01-23T04:11:50.343Z,93893.00
2019-01-23T04:14:22.425Z,93891.00
2019-01-23T04:16:54.414Z,93883.00
2019-01-23T04:19:26.274Z,93885.00
2019-01-23T04:21:58.208Z,93887.00
2019-01-23T04:24:30.073Z,93883.00
2019-01-23T04:27:02.031Z,93877.00
2019-01-23T04:29:39.446Z,93873.00
2019-01-23T04:32:07.486Z,93881.00
2019-01-23T04:34:39.352Z,93879.00
2019-01-23T04:37:11.325Z,93877.00
2019-01-23T04:39:43.197Z,93861.00
2019-01-23T04:42:15.180Z,93853.00
2019-01-23T04:44:47.071Z,93851.00
2019-01-23T04:47:18.962Z,93854.00
2019-01-23T04:49:50.824Z,93849.00
2019-01-23T04:52:54.026Z,93848.00
2019-01-23T04:55:25.886Z,93853.00
2019-01-23T04:57:58.083Z,93848.00
2019-01-23T05:00:30.443Z,93846.00
2019-01-23T05:03:03.712Z,93849.00
2019-01-23T05:05:35.592Z,93856.00
2019-01-23T05:08:07.509Z,93846.00
2019-01-23T05:10:39.376Z,93841.00
2019-01-23T05:13:11.263Z,93848.00
2019-01-23T05:15:43.129Z,93847.00
2019-01-23T05:18:15.018Z,93847.00
2019-01-23T05:20:46.886Z,93840.00
2019-01-23T05:23:18.774Z,93837.00
2019-01-23T05:25:50.630Z,93830.00
2019-01-23T05:28:22.688Z,93836.00
2019-01-23T05:30:54.541Z,93830.00
2019-01-23T05:33:26.441Z,93835.00
2019-01-23T05:35:58.305Z,93823.00
2019-01-23T05:38:30.287Z,93821.00
2019-01-23T05:41:02.160Z,93821.00
2019-01-23T05:43:34.083Z,93805.00
2019-01-23T05:46:06.069Z,93809.00
2019-01-23T05:48:38.150Z,93809.00
2019-01-23T05:51:10.013Z,93811.00
2019-01-23T05:53:41.910Z,93810.00
2019-01-23T05:56:13.805Z,93813.00
2019-01-23T05:58:45.710Z,93806.00
2019-01-23T06:01:17.864Z,93810.00
2019-01-23T06:03:49.886Z,93810.00
2019-01-23T06:06:21.751Z,93808.00
2019-01-23T06:08:53.664Z,93808.00
2019-01-23T06:11:25.528Z,93811.00
2019-01-23T06:13:57.437Z,93814.00
2019-01-23T06:16:29.292Z,93816.00
2019-01-23T06:19:01.183Z,93815.00
2019-01-23T06:21:33.071Z,93811.00
2019-01-23T06:24:05.094Z,93804.00
2019-01-23T06:26:37.014Z,93806.00
2019-01-23T06:29:08.928Z,93802.00
2019-01-23T06:31:40.794Z,93798.00
2019-01-23T06:34:12.711Z,93787.00
2019-01-23T06:36:44.571Z,93795.00
2019-01-23T06:39:16.579Z,93798.00
2019-01-23T06:41:48.517Z,93795.00
2019-01-23T06:44:20.478Z,93787.00
2019-01-23T06:46:52.338Z,93800.00
2019-01-23T06:49:24.234Z,93795.00
2019-01-23T06:51:56.135Z,93793.00
2019-01-23T06:54:28.139Z,93792.00
2019-01-23T06:57:00.040Z,93809.00
2019-01-23T06:59:31.938Z,93797.00
2019-01-23T07:02:03.830Z,93791.00
2019-01-23T07:04:35.743Z,93791.00
2019-01-23T07:07:07.661Z,93792.00
2019-01-23T07:09:39.548Z,93790.00
2019-01-23T07:12:11.415Z,93796.00
2019-01-23T07:14:43.314Z,93794.00
2019-01-23T07:17:15.167Z,93786.00
2019-01-23T07:19:47.062Z,93785.00
2019-01-23T07:22:18.927Z,93793.00
2019-01-23T07:24:50.825Z,93786.00
2019-01-23T07:27:22.757Z,93793.00
2019-01-23T07:29:55.158Z,93784.00
2019-01-23T07:32:27.017Z,93786.00
2019-01-23T07:34:58.917Z,93773.00
2019-01-23T07:37:30.807Z,93776.00
2019-01-23T07:40:02.718Z,93778.00
2019-01-23T07:42:34.650Z,93766.00
2019-01-23T07:45:08.317Z,93774.00
2019-01-23T07:47:40.261Z,93778.00
2019-01-23T07:50:13.629Z,93769.00
2019-01-23T07:52:45.595Z,93771.00
2019-01-23T07:55:18.392Z,93775.00
2019-01-23T07:57:50.250Z,93777.00
2019-01-23T08:00:23.653Z,93769.00
2019-01-23T08:02:55.610Z,93765.00
2019-01-23T08:05:27.807Z,93764.00
2019-01-23T08:07:59.679Z,93765.00
2019-01-23T08:10:31.662Z,93763.00
2019-01-23T08:13:03.525Z,93759.00
2019-01-23T08:15:37.051Z,93758.00
2019-01-23T08:18:08.938Z,93751.00
2019-01-23T08:20:40.839Z,93762.00
2019-01-23T08:23:12.704Z,93758.00
2019-01-23T08:25:44.573Z,93764.00
2019-01-23T08:28:16.399Z,93760.00
2019-01-23T08:30:48.257Z,93767.00
2019-01-23T08:33:20.103Z,93769.00
2019-01-23T08:35:52.078Z,93765.00
2019-01-23T08:38:23.905Z,93758.00
2019-01-23T08:40:55.926Z,93755.00
2019-01-23T08:43:27.759Z,93752.00
2019-01-23T08:45:59.646Z,93750.00
2019-01-23T08:48:31.478Z,93750.00
2019-01-23T08:51:03.456Z,93747.00
2019-01-23T08:53:35.283Z,93746.00
2019-01-23T08:56:07.147Z,93731.00
2019-01-23T08:58:39.119Z,93731.00
2019-01-23T09:01:11.050Z,93731.00
2019-01-23T09:03:42.917Z,93726.00
2019-01-23T09:06:14.755Z,93735.00
2019-01-23T09:08:46.740Z,93732.00
2019-01-23T09:11:18.603Z,93727.00
2019-01-23T09:13:50.461Z,93735.00
2019-01-23T09:16:22.396Z,93732.00
2019-01-23T09:18:54.302Z,93734.00
2019-01-23T09:21:26.188Z,93731.00
2019-01-23T09:23:58.019Z,93724.00
2019-01-23T09:26:29.895Z,93735.00
2019-01-23T09:29:01.751Z,93729.00
2019-01-23T09:32:25.827Z,93733.00
2019-01-23T09:36:05.651Z,93731.00
2019-01-23T09:39:20.131Z,93731.00
2019-01-23T09:42:25.440Z,93733.00
2019-01-23T09:45:58.601Z,93723.00
2019-01-23T09:49:16.308Z,93736.00
2019-01-23T09:52:51.955Z,93729.00
2019-01-23T09:55:23.852Z,93720.00
2019-01-23T09:58:00.187Z,93727.00
2019-01-23T10:00:32.102Z,93724.00
2019-01-23T10:03:03.959Z,93718.00
2019-01-23T10:05:35.787Z,93717.00
2019-01-23T10:08:08.147Z,93720.00
2019-01-23T10:10:40.106Z,93717.00
2019-01-23T10:13:12.035Z,93721.00
2019-01-23T10:15:54.453Z,93718.00
2019-01-23T10:18:26.442Z,93717.00
2019-01-23T10:20:58.313Z,93723.00
2019-01-23T10:23:30.215Z,93720.00
2019-01-23T10:26:02.108Z,93712.00
2019-01-23T10:28:34.109Z,93718.00
2019-01-23T10:31:06.794Z,93717.00
2019-01-23T10:33:38.954Z,93708.00
2019-01-23T10:36:10.823Z,93710.00
2019-01-23T10:38:42.701Z,93705.00
2019-01-23T10:41:14.571Z,93699.00
2019-01-23T10:43:46.466Z,93701.00
2019-01-23T10:46:18.453Z,93702.00
2019-01-23T10:48:50.369Z,93705.00
2019-01-23T10:51:22.221Z,93693.00
2019-01-23T10:53:54.145Z,93699.00
2019-01-23T10:56:26.086Z,93685.00
2019-01-23T10:58:57.988Z,93685.00
2019-01-23T11:01:29.837Z,93688.00
2019-01-23T11:04:01.920Z,93681.00
2019-01-23T11:06:33.772Z,93683.00
2019-01-23T11:09:08.693Z,93689.00
2019-01-23T11:11:40.641Z,93684.00
2019-01-23T11:14:12.593Z,93681.00
2019-01-23T11:16:44.441Z,93680.00
2019-01-23T11:19:16.329Z,93679.00
2019-01-23T11:21:48.186Z,93683.00
2019-01-23T11:24:20.077Z,93678.00
2019-01-23T11:26:51.990Z,93676.00
2019-01-23T11:29:23.876Z,93668.00
2019-01-23T11:31:55.737Z,93667.00
2019-01-23T11:34:27.616Z,93665.00
2019-01-23T11:36:59.493Z,93665.00
2019-01-23T11:39:31.381Z,93664.00
2019-01-23T11:42:03.243Z,93669.00
2019-01-23T11:44:35.173Z,93654.00
2019-01-23T11:47:07.190Z,93663.00
2019-01-23T11:49:39.073Z,93666.00
2019-01-23T11:52:10.908Z,93655.00
2019-01-23T11:54:42.810Z,93669.00
2019-01-23T11:57:14.652Z,93660.00
2019-01-23T11:59:46.544Z,93656.00
2019-01-23T12:02:18.513Z,93663.00
2019-01-23T12:04:50.755Z,93674.00
2019-01-23T12:07:22.625Z,93667.00
2019-01-23T12:09:54.503Z,93668.00
2019-01-23T12:12:26.348Z,93668.00
2019-01-23T12:14:58.285Z,93676.00
2019-01-23T12:17:30.137Z,93667.00
2019-01-23T12:20:02.046Z,93658.00
2019-01-23T12:22:33.890Z,93667.00
2019-01-23T12:25:07.028Z,93665.00
2019-01-23T12:27:38.907Z,93681.00
2019-01-23T12:30:15.971Z,93673.00
2019-01-23T12:32:47.871Z,93665.00
2019-01-23T12:35:19.809Z,93664.00
2019-01-23T12:37:51.693Z,93660.00
2019-01-23T12:40:23.437Z,93660.00
2019-01-23T12:42:55.383Z,93655.00
2019-01-23T12:45:28.755Z,93660.00
2019-01-23T12:48:00.658Z,93656.00
2019-01-23T12:50:33.165Z,93649.00
2019-01-23T12:53:05.035Z,93643.00
2019-01-23T12:55:36.878Z,93640.00
2019-01-23T12:58:08.761Z,93647.00
2019-01-23T13:00:40.833Z,93642.00
2019-01-23T13:03:12.710Z,93633.00
2019-01-23T13:05:44.809Z,93641.00
2019-01-23T13:08:16.697Z,93641.00
2019-01-23T13:10:48.584Z,93641.00
2019-01-23T13:13:21.324Z,93634.00
2019-01-23T13:15:54.509Z,93644.00
2019-01-23T13:18:26.840Z,93643.00
2019-01-23T13:20:58.915Z,93657.00
2019-01-23T13:23:31.177Z,93648.00
2019-01-23T13:26:03.230Z,93649.00
2019-01-23T13:28:36.042Z,93660.00
2019-01-23T13:31:09.637Z,93656.00
2019-01-23T13:33:42.734Z,93656.00
2019-01-23T13:36:14.933Z,93664.00
2019-01-23T13:38:47.982Z,93648.00
2019-01-23T13:41:21.228Z,93656.00
2019-01-23T13:43:54.014Z,93656.00
2019-01-23T13:46:26.645Z,93658.00
2019-01-23T13:48:59.310Z,93663.00
2019-01-23T13:51:31.728Z,93659.00
2019-01-23T13:54:04.207Z,93669.00
2019-01-23T13:56:36.621Z,93672.00
2019-01-23T13:59:09.531Z,93677.00
2019-01-23T14:01:42.645Z,93684.00
2019-01-23T14:04:14.854Z,93677.00
2019-01-23T14:06:48.667Z,93676.00
2019-01-23T14:09:22.714Z,93676.00
2019-01-23T14:11:55.207Z,93682.00
2019-01-23T14:14:27.771Z,93680.00
2019-01-23T14:17:00.555Z,93687.00
2019-01-23T14:19:33.805Z,93690.00
2019-01-23T14:22:07.561Z,93681.00
2019-01-23T14:24:41.828Z,93678.00
2019-01-23T14:27:15.167Z,93681.00
2019-01-23T14:29:48.739Z,93690.00
2019-01-23T14:32:23.701Z,93690.00
2019-01-23T14:34:57.969Z,93690.00
2019-01-23T14:37:31.354Z,93689.00
2019-01-23T14:40:05.184Z,93696.00
2019-01-23T14:42:38.296Z,93690.00
2019-01-23T14:45:13.612Z,93704.00
2019-01-23T14:47:48.469Z,93692.00
2019-01-23T14:50:22.921Z,93694.00
2019-01-23T14:52:55.751Z,93694.00
2019-01-23T14:55:28.322Z,93708.00
2019-01-23T14:58:01.630Z,93707.00
2019-01-23T15:00:35.373Z,93710.00
2019-01-23T15:03:09.916Z,93713.00
2019-01-23T15:05:45.392Z,93717.00
2019-01-23T15:08:19.688Z,93717.00
2019-01-23T15:10:53.572Z,93722.00
2019-01-23T15:13:28.644Z,93721.00
2019-01-23T15:16:02.584Z,93713.00
2019-01-23T15:18:37.227Z,93721.00
2019-01-23T15:21:11.531Z,93721.00
2019-01-23T15:23:48.037Z,93733.00
2019-01-23T15:26:22.907Z,93723.00
2019-01-23T15:29:00.251Z,93733.00
2019-01-23T15:31:37.552Z,93734.00
2019-01-23T15:34:14.295Z,93738.00
2019-01-23T15:36:51.342Z,93733.00
2019-01-23T15:39:28.574Z,93746.00
2019-01-23T15:42:05.929Z,93741.00
2019-01-23T15:44:43.345Z,93746.00
2019-01-23T15:47:20.637Z,93754.00
2019-01-23T15:49:56.924Z,93747.00
2019-01-23T15:52:33.489Z,93757.00
2019-01-23T15:55:12.233Z,93756.00
2019-01-23T15:57:48.093Z,93762.00
2019-01-23T16:00:31.988Z,93761.00
2019-01-23T16:03:08.241Z,93762.00
2019-01-23T16:05:44.564Z,93766.00
2019-01-23T16:08:20.589Z,93776.00
2019-01-23T16:10:55.566Z,93778.00
2019-01-23T16:13:30.516Z,93770.00
2019-01-23T16:16:06.802Z,93777.00
2019-01-23T16:18:41.914Z,93783.00
2019-01-23T16:21:18.012Z,93780.00
2019-01-23T16:23:54.864Z,93779.00
2019-01-23T16:26:31.756Z,93780.00
2019-01-23T16:29:07.684Z,93773.00
2019-01-23T16:31:43.912Z,93774.00
2019-01-23T16:34:19.462Z,93786.00
2019-01-23T16:36:55.748Z,93775.00
2019-01-23T16:39:32.045Z,93775.00
2019-01-23T16:42:08.389Z,93788.00
2019-01-23T16:44:44.247Z,93786.00
2019-01-23T16:47:20.917Z,93794.00
2019-01-23T16:49:57.357Z,93795.00
2019-01-23T16:52:34.466Z,93795.00
2019-01-23T16:55:11.789Z,93802.00
2019-01-23T16:57:50.742Z,93801.00
2019-01-23T17:00:33.301Z,93810.00
2019-01-23T17:03:11.227Z,93802.00
2019-01-23T17:05:49.080Z,93816.00
2019-01-23T17:08:26.882Z,93823.00
2019-01-23T17:11:03.227Z,93810.00
2019-01-23T17:13:40.402Z,93829.00
2019-01-23T17:16:17.126Z,93831.00
2019-01-23T17:18:53.803Z,93839.00
2019-01-23T17:21:31.373Z,93834.00
2019-01-23T17:24:09.220Z,93828.00
2019-01-23T17:26:46.937Z,93836.00
2019-01-23T17:29:30.678Z,93835.00
2019-01-23T17:32:04.476Z,93842.00
2019-01-23T17:34:41.590Z,93844.00
2019-01-23T17:37:18.083Z,93841.00
2019-01-23T17:39:54.819Z,93844.00
2019-01-23T17:42:31.946Z,93847.00
2019-01-23T17:45:11.883Z,93847.00
2019-01-23T17:47:50.900Z,93849.00
2019-01-23T17:50:29.642Z,93841.00
2019-01-23T17:53:07.866Z,93849.00
2019-01-23T17:55:45.827Z,93849.00
2019-01-23T17:58:22.838Z,93853.00
2019-01-23T18:01:01.014Z,93858.00
2019-01-23T18:03:38.662Z,93860.00
2019-01-23T18:06:16.279Z,93858.00
2019-01-23T18:08:53.924Z,93860.00
2019-01-23T18:11:32.345Z,93864.00
2019-01-23T18:14:10.193Z,93862.00
2019-01-23T18:16:48.798Z,93870.00
2019-01-23T18:19:27.083Z,93859.00
2019-01-23T18:22:06.911Z,93876.00
2019-01-23T18:24:45.006Z,93871.00
2019-01-23T18:27:23.281Z,93867.00
2019-01-23T18:30:02.125Z,93871.00
2019-01-23T18:32:45.185Z,93875.00
2019-01-23T18:36:00.078Z,93874.00
2019-01-23T18:39:14.136Z,93878.00
2019-01-23T18:42:42.519Z,93882.00
2019-01-23T18:45:53.650Z,93882.00
2019-01-23T18:49:39.627Z,93878.00
2019-01-23T18:52:21.728Z,93884.00
2019-01-23T18:55:00.800Z,93888.00
2019-01-23T18:57:39.104Z,93890.00
2019-01-23T19:00:20.732Z,93899.00
2019-01-23T19:02:58.845Z,93898.00
2019-01-23T19:05:38.092Z,93902.00
2019-01-23T19:08:18.616Z,93899.00
2019-01-23T19:10:59.302Z,93910.00
2019-01-23T19:13:38.172Z,93904.00
2019-01-23T19:16:16.155Z,93915.00
2019-01-23T19:18:55.108Z,93911.00
2019-01-23T19:21:34.122Z,93903.00
2019-01-23T19:24:11.971Z,93909.00
2019-01-23T19:26:51.050Z,93904.00
2019-01-23T19:29:30.601Z,93910.00
2019-01-23T19:34:51.004Z,93914.00
2019-01-23T19:37:31.317Z,93919.00
2019-01-23T19:40:12.634Z,93916.00
2019-01-23T19:42:52.041Z,93922.00
2019-01-23T19:45:31.512Z,93925.00
2019-01-23T19:48:11.002Z,93924.00
2019-01-23T19:50:51.605Z,93922.00
2019-01-23T19:53:30.962Z,93936.00
2019-01-23T19:56:09.411Z,93935.00
2019-01-23T19:58:49.356Z,93941.00
2019-01-23T20:01:28.613Z,93939.00
2019-01-23T20:04:08.051Z,93941.00
2019-01-23T20:06:46.479Z,93947.00
2019-01-23T20:09:26.351Z,93937.00
2019-01-23T20:12:06.223Z,93942.00
2019-01-23T20:14:46.546Z,93948.00
2019-01-23T20:17:28.149Z,93947.00
2019-01-23T20:20:08.381Z,93954.00
2019-01-23T20:22:48.075Z,93954.00
2019-01-23T20:25:28.977Z,93958.00
2019-01-23T20:28:10.351Z,93962.00
2019-01-23T20:30:50.875Z,93953.00
2019-01-23T20:33:30.352Z,93970.00
2019-01-23T20:36:11.168Z,93967.00
2019-01-23T20:38:51.722Z,93973.00
2019-01-23T20:41:32.040Z,93981.00
2019-01-23T20:44:12.914Z,93976.00
2019-01-23T20:46:52.997Z,93985.00
2019-01-23T20:49:31.846Z,93986.00
2019-01-23T20:52:10.895Z,93983.00
2019-01-23T20:54:50.000Z,93983.00
2019-01-23T20:57:31.991Z,93991.00
2019-01-23T21:00:14.547Z,93990.00
2019-01-23T21:02:54.793Z,93989.00
2019-01-23T21:05:34.939Z,93992.00
2019-01-23T21:08:14.817Z,93998.00
2019-01-23T21:10:54.344Z,93998.00
2019-01-23T21:13:34.215Z,93993.00
2019-01-23T21:16:13.200Z,94000.00
2019-01-23T21:18:52.762Z,93995.00
2019-01-23T21:21:31.849Z,94004.00
2019-01-23T21:24:10.210Z,94001.00
2019-01-23T21:26:47.553Z,94005.00
2019-01-23T21:29:25.429Z,94009.00
2019-01-23T21:32:03.016Z,94025.00
2019-01-23T21:34:41.161Z,94012.00
2019-01-23T21:37:18.474Z,94015.00
2019-01-23T21:39:56.044Z,94011.00
2019-01-23T21:42:33.343Z,94032.00
2019-01-23T21:45:11.502Z,94026.00
2019-01-23T21:47:48.452Z,94026.00
2019-01-23T21:50:26.655Z,94035.00
2019-01-23T21:53:03.825Z,94035.00
2019-01-23T21:55:41.388Z,94033.00
2019-01-23T21:58:18.913Z,94045.00
2019-01-23T22:01:00.026Z,94048.00
2019-01-23T22:03:37.022Z,94039.00
2019-01-23T22:06:14.060Z,94054.00
2019-01-23T22:08:49.755Z,94062.00
2019-01-23T22:11:26.054Z,94057.00
2019-01-23T22:14:01.555Z,94064.00
2019-01-23T22:16:37.065Z,94063.00
2019-01-23T22:19:11.259Z,94064.00
2019-01-23T22:21:45.739Z,94072.00
2019-01-23T22:24:19.864Z,94073.00
2019-01-23T22:26:53.802Z,94071.00
2019-01-23T22:29:28.033Z,94082.00
2019-01-23T22:32:01.455Z,94062.00
2019-01-23T22:34:34.562Z,94084.00
2019-01-23T22:37:07.086Z,94082.00
2019-01-23T22:39:39.160Z,94088.00
2019-01-23T22:42:11.077Z,94091.00
2019-01-23T22:44:43.905Z,94086.00
2019-01-23T22:47:16.130Z,94089.00
2019-01-23T22:49:48.002Z,94090.00
2019-01-23T22:52:20.066Z,94094.00
2019-01-23T22:54:52.031Z,94093.00
2019-01-23T22:57:24.828Z,94098.00
2019-01-23T22:59:56.765Z,94099.00
2019-01-23T23:02:28.662Z,94113.00
2019-01-23T23:05:00.530Z,94116.00
2019-01-23T23:07:32.411Z,94108.00
2019-01-23T23:10:05.579Z,94110.00
2019-01-23T23:12:37.980Z,94119.00
2019-01-23T23:15:10.472Z,94129.00
2019-01-23T23:17:42.401Z,94135.00
2019-01-23T23:20:14.479Z,94132.00
2019-01-23T23:22:46.386Z,94140.00
2019-01-23T23:25:18.400Z,94140.00
2019-01-23T23:27:50.500Z,94148.00
2019-01-23T23:30:22.587Z,94152.00
2019-01-23T23:32:54.698Z,94151.00
2019-01-23T23:35:30.463Z,94142.00
2019-01-23T23:38:02.376Z,94150.00
2019-01-23T23:40:34.254Z,94148.00
2019-01-23T23:43:07.845Z,94158.00
2019-01-23T23:45:40.224Z,94149.00
2019-01-23T23:48:13.154Z,94164.00
2019-01-23T23:50:45.994Z,94167.00
2019-01-23T23:53:18.801Z,94165.00
2019-01-23T23:55:50.663Z,94176.00
2019-01-23T23:58:22.631Z,94184.00
